sensor_id;sensor_type;location;lat;lon;timestamp;P1;durP1;ratioP1;P2;durP2;ratioP2
19897;SDS011;10111;50.814;4.572;2023-08-06T00:00:22;4.50;;;1.57;;
19897;SDS011;10111;50.814;4.572;2023-08-06T00:02:48;2.57;;;1.60;;
19897;SDS011;10111;50.814;4.572;2023-08-06T00:05:14;1.53;;;1.30;;
19897;SDS011;10111;50.814;4.572;2023-08-06T00:07:43;3.23;;;1.47;;
19897;SDS011;10111;50.814;4.572;2023-08-06T00:10:09;2.23;;;1.50;;
19897;SDS011;10111;50.814;4.572;2023-08-06T00:12:35;2.67;;;1.87;;
19897;SDS011;10111;50.814;4.572;2023-08-06T00:15:01;8.23;;;1.83;;
19897;SDS011;10111;50.814;4.572;2023-08-06T00:17:27;2.90;;;1.67;;
19897;SDS011;10111;50.814;4.572;2023-08-06T00:19:52;5.40;;;1.80;;
19897;SDS011;10111;50.814;4.572;2023-08-06T00:22:18;9.20;;;1.50;;
19897;SDS011;10111;50.814;4.572;2023-08-06T00:24:44;3.57;;;1.70;;
19897;SDS011;10111;50.814;4.572;2023-08-06T00:27:09;4.73;;;1.90;;
19897;SDS011;10111;50.814;4.572;2023-08-06T00:29:35;5.67;;;1.87;;
19897;SDS011;10111;50.814;4.572;2023-08-06T00:32:01;6.20;;;1.90;;
19897;SDS011;10111;50.814;4.572;2023-08-06T00:34:26;3.73;;;1.97;;
19897;SDS011;10111;50.814;4.572;2023-08-06T00:36:52;4.50;;;1.80;;
19897;SDS011;10111;50.814;4.572;2023-08-06T00:39:18;3.33;;;2.30;;
19897;SDS011;10111;50.814;4.572;2023-08-06T00:41:44;2.90;;;2.40;;
19897;SDS011;10111;50.814;4.572;2023-08-06T00:44:10;5.53;;;2.17;;
19897;SDS011;10111;50.814;4.572;2023-08-06T00:46:35;3.17;;;2.30;;
19897;SDS011;10111;50.814;4.572;2023-08-06T00:49:01;5.43;;;2.70;;
19897;SDS011;10111;50.814;4.572;2023-08-06T00:51:27;4.33;;;2.50;;
19897;SDS011;10111;50.814;4.572;2023-08-06T00:53:53;5.60;;;2.57;;
19897;SDS011;10111;50.814;4.572;2023-08-06T00:56:19;5.23;;;3.57;;
19897;SDS011;10111;50.814;4.572;2023-08-06T00:58:45;3.80;;;2.47;;
19897;SDS011;10111;50.814;4.572;2023-08-06T01:01:11;4.57;;;3.30;;
19897;SDS011;10111;50.814;4.572;2023-08-06T01:03:37;4.77;;;2.93;;
19897;SDS011;10111;50.814;4.572;2023-08-06T01:06:03;4.50;;;3.00;;
19897;SDS011;10111;50.814;4.572;2023-08-06T01:08:49;6.13;;;3.50;;
19897;SDS011;10111;50.814;4.572;2023-08-06T01:14:19;7.53;;;3.63;;
19897;SDS011;10111;50.814;4.572;2023-08-06T01:16:55;8.17;;;4.47;;
19897;SDS011;10111;50.814;4.572;2023-08-06T01:19:23;8.53;;;4.07;;
19897;SDS011;10111;50.814;4.572;2023-08-06T01:21:50;5.67;;;4.50;;
19897;SDS011;10111;50.814;4.572;2023-08-06T01:24:15;5.47;;;4.30;;
19897;SDS011;10111;50.814;4.572;2023-08-06T01:27:17;4.67;;;4.17;;
19897;SDS011;10111;50.814;4.572;2023-08-06T01:29:47;4.57;;;3.70;;
19897;SDS011;10111;50.814;4.572;2023-08-06T01:32:19;4.60;;;3.77;;
19897;SDS011;10111;50.814;4.572;2023-08-06T01:34:46;6.40;;;3.90;;
19897;SDS011;10111;50.814;4.572;2023-08-06T01:37:13;6.07;;;4.87;;
19897;SDS011;10111;50.814;4.572;2023-08-06T01:39:39;10.83;;;4.60;;
19897;SDS011;10111;50.814;4.572;2023-08-06T01:42:07;7.00;;;4.87;;
19897;SDS011;10111;50.814;4.572;2023-08-06T01:44:33;9.03;;;6.00;;
19897;SDS011;10111;50.814;4.572;2023-08-06T01:46:59;8.30;;;5.10;;
19897;SDS011;10111;50.814;4.572;2023-08-06T01:49:24;9.03;;;5.20;;
19897;SDS011;10111;50.814;4.572;2023-08-06T01:51:50;8.97;;;5.07;;
19897;SDS011;10111;50.814;4.572;2023-08-06T01:54:16;10.00;;;5.40;;
19897;SDS011;10111;50.814;4.572;2023-08-06T01:56:41;9.10;;;5.17;;
19897;SDS011;10111;50.814;4.572;2023-08-06T01:59:07;13.23;;;5.43;;
19897;SDS011;10111;50.814;4.572;2023-08-06T02:01:32;10.20;;;5.43;;
19897;SDS011;10111;50.814;4.572;2023-08-06T02:03:58;10.43;;;5.37;;
19897;SDS011;10111;50.814;4.572;2023-08-06T02:06:24;9.27;;;5.33;;
19897;SDS011;10111;50.814;4.572;2023-08-06T02:08:49;8.47;;;5.40;;
19897;SDS011;10111;50.814;4.572;2023-08-06T02:11:15;11.33;;;4.97;;
19897;SDS011;10111;50.814;4.572;2023-08-06T02:13:41;10.13;;;5.57;;
19897;SDS011;10111;50.814;4.572;2023-08-06T02:16:07;5.93;;;5.10;;
19897;SDS011;10111;50.814;4.572;2023-08-06T02:18:33;9.13;;;4.70;;
19897;SDS011;10111;50.814;4.572;2023-08-06T02:20:59;6.30;;;4.13;;
19897;SDS011;10111;50.814;4.572;2023-08-06T02:23:25;9.17;;;5.37;;
19897;SDS011;10111;50.814;4.572;2023-08-06T02:25:58;4.67;;;3.57;;
19897;SDS011;10111;50.814;4.572;2023-08-06T02:28:25;4.03;;;3.30;;
19897;SDS011;10111;50.814;4.572;2023-08-06T02:30:51;7.03;;;3.80;;
19897;SDS011;10111;50.814;4.572;2023-08-06T02:33:17;5.50;;;2.80;;
19897;SDS011;10111;50.814;4.572;2023-08-06T02:35:43;5.53;;;2.93;;
19897;SDS011;10111;50.814;4.572;2023-08-06T02:38:08;8.30;;;2.63;;
19897;SDS011;10111;50.814;4.572;2023-08-06T02:40:34;4.00;;;3.07;;
19897;SDS011;10111;50.814;4.572;2023-08-06T02:42:59;5.83;;;2.43;;
19897;SDS011;10111;50.814;4.572;2023-08-06T02:45:25;6.03;;;2.10;;
19897;SDS011;10111;50.814;4.572;2023-08-06T02:47:51;6.20;;;2.90;;
19897;SDS011;10111;50.814;4.572;2023-08-06T02:50:16;5.63;;;2.60;;
19897;SDS011;10111;50.814;4.572;2023-08-06T02:52:42;4.90;;;2.87;;
19897;SDS011;10111;50.814;4.572;2023-08-06T02:55:07;8.57;;;2.93;;
19897;SDS011;10111;50.814;4.572;2023-08-06T02:57:33;4.27;;;2.10;;
19897;SDS011;10111;50.814;4.572;2023-08-06T02:59:59;7.10;;;2.50;;
19897;SDS011;10111;50.814;4.572;2023-08-06T03:02:24;4.03;;;2.70;;
19897;SDS011;10111;50.814;4.572;2023-08-06T03:04:50;4.77;;;1.97;;
19897;SDS011;10111;50.814;4.572;2023-08-06T03:07:16;6.33;;;2.97;;
19897;SDS011;10111;50.814;4.572;2023-08-06T03:09:41;8.37;;;3.00;;
19897;SDS011;10111;50.814;4.572;2023-08-06T03:12:07;4.40;;;2.40;;
19897;SDS011;10111;50.814;4.572;2023-08-06T03:14:33;4.73;;;2.40;;
19897;SDS011;10111;50.814;4.572;2023-08-06T03:16:58;5.63;;;3.07;;
19897;SDS011;10111;50.814;4.572;2023-08-06T03:19:24;3.90;;;2.33;;
19897;SDS011;10111;50.814;4.572;2023-08-06T03:21:50;4.30;;;3.07;;
19897;SDS011;10111;50.814;4.572;2023-08-06T03:24:15;14.17;;;2.90;;
19897;SDS011;10111;50.814;4.572;2023-08-06T03:26:41;21.60;;;3.90;;
19897;SDS011;10111;50.814;4.572;2023-08-06T03:29:07;6.93;;;3.20;;
19897;SDS011;10111;50.814;4.572;2023-08-06T03:31:32;6.70;;;3.37;;
19897;SDS011;10111;50.814;4.572;2023-08-06T03:33:58;11.30;;;3.97;;
19897;SDS011;10111;50.814;4.572;2023-08-06T03:36:23;5.33;;;3.33;;
19897;SDS011;10111;50.814;4.572;2023-08-06T03:38:49;7.80;;;3.73;;
19897;SDS011;10111;50.814;4.572;2023-08-06T03:41:15;7.33;;;3.53;;
19897;SDS011;10111;50.814;4.572;2023-08-06T03:43:40;6.47;;;4.67;;
19897;SDS011;10111;50.814;4.572;2023-08-06T03:46:06;10.43;;;6.70;;
19897;SDS011;10111;50.814;4.572;2023-08-06T03:48:31;9.63;;;5.23;;
19897;SDS011;10111;50.814;4.572;2023-08-06T03:50:57;12.60;;;5.50;;
19897;SDS011;10111;50.814;4.572;2023-08-06T03:53:25;9.60;;;6.57;;
19897;SDS011;10111;50.814;4.572;2023-08-06T03:55:51;10.63;;;7.17;;
19897;SDS011;10111;50.814;4.572;2023-08-06T03:58:17;12.67;;;8.20;;
19897;SDS011;10111;50.814;4.572;2023-08-06T04:00:42;18.70;;;9.03;;
19897;SDS011;10111;50.814;4.572;2023-08-06T04:03:08;14.60;;;8.80;;
19897;SDS011;10111;50.814;4.572;2023-08-06T04:05:33;20.40;;;10.13;;
19897;SDS011;10111;50.814;4.572;2023-08-06T04:07:59;19.90;;;9.80;;
19897;SDS011;10111;50.814;4.572;2023-08-06T04:10:25;17.20;;;11.03;;
19897;SDS011;10111;50.814;4.572;2023-08-06T04:12:50;17.30;;;9.80;;
19897;SDS011;10111;50.814;4.572;2023-08-06T04:15:16;16.10;;;9.40;;
19897;SDS011;10111;50.814;4.572;2023-08-06T04:17:41;14.80;;;8.83;;
19897;SDS011;10111;50.814;4.572;2023-08-06T04:20:07;16.07;;;8.57;;
19897;SDS011;10111;50.814;4.572;2023-08-06T04:22:33;11.93;;;7.53;;
19897;SDS011;10111;50.814;4.572;2023-08-06T04:24:59;8.90;;;6.63;;
19897;SDS011;10111;50.814;4.572;2023-08-06T04:27:24;7.93;;;4.80;;
19897;SDS011;10111;50.814;4.572;2023-08-06T04:29:50;7.30;;;4.23;;
19897;SDS011;10111;50.814;4.572;2023-08-06T04:32:16;5.00;;;3.20;;
19897;SDS011;10111;50.814;4.572;2023-08-06T04:34:42;2.20;;;1.63;;
19897;SDS011;10111;50.814;4.572;2023-08-06T04:37:08;1.20;;;1.10;;
19897;SDS011;10111;50.814;4.572;2023-08-06T04:39:34;0.87;;;0.80;;
19897;SDS011;10111;50.814;4.572;2023-08-06T04:41:59;0.70;;;0.60;;
19897;SDS011;10111;50.814;4.572;2023-08-06T04:44:25;1.63;;;0.90;;
19897;SDS011;10111;50.814;4.572;2023-08-06T04:46:51;1.50;;;1.23;;
19897;SDS011;10111;50.814;4.572;2023-08-06T04:49:17;2.20;;;1.73;;
19897;SDS011;10111;50.814;4.572;2023-08-06T04:51:43;2.57;;;1.57;;
19897;SDS011;10111;50.814;4.572;2023-08-06T04:54:09;2.73;;;1.47;;
19897;SDS011;10111;50.814;4.572;2023-08-06T04:56:35;3.93;;;2.60;;
19897;SDS011;10111;50.814;4.572;2023-08-06T04:59:00;4.73;;;2.00;;
19897;SDS011;10111;50.814;4.572;2023-08-06T05:01:26;3.77;;;1.97;;
19897;SDS011;10111;50.814;4.572;2023-08-06T05:03:53;3.80;;;2.30;;
19897;SDS011;10111;50.814;4.572;2023-08-06T05:06:19;4.17;;;2.43;;
19897;SDS011;10111;50.814;4.572;2023-08-06T05:08:44;4.33;;;2.70;;
19897;SDS011;10111;50.814;4.572;2023-08-06T05:11:10;5.63;;;3.37;;
19897;SDS011;10111;50.814;4.572;2023-08-06T05:13:35;3.63;;;3.23;;
19897;SDS011;10111;50.814;4.572;2023-08-06T05:16:01;6.53;;;3.90;;
19897;SDS011;10111;50.814;4.572;2023-08-06T05:18:27;8.43;;;3.67;;
19897;SDS011;10111;50.814;4.572;2023-08-06T05:20:53;5.97;;;3.13;;
19897;SDS011;10111;50.814;4.572;2023-08-06T05:23:18;4.53;;;3.13;;
19897;SDS011;10111;50.814;4.572;2023-08-06T05:25:44;4.93;;;2.67;;
19897;SDS011;10111;50.814;4.572;2023-08-06T05:28:10;7.43;;;2.67;;
19897;SDS011;10111;50.814;4.572;2023-08-06T05:30:38;3.50;;;3.13;;
19897;SDS011;10111;50.814;4.572;2023-08-06T05:33:04;4.10;;;2.73;;
19897;SDS011;10111;50.814;4.572;2023-08-06T05:35:30;6.27;;;3.30;;
19897;SDS011;10111;50.814;4.572;2023-08-06T05:37:56;4.63;;;2.77;;
19897;SDS011;10111;50.814;4.572;2023-08-06T05:40:21;3.93;;;2.90;;
19897;SDS011;10111;50.814;4.572;2023-08-06T05:42:47;6.53;;;2.37;;
19897;SDS011;10111;50.814;4.572;2023-08-06T05:45:13;3.37;;;2.63;;
19897;SDS011;10111;50.814;4.572;2023-08-06T05:47:38;4.53;;;3.00;;
19897;SDS011;10111;50.814;4.572;2023-08-06T05:50:04;8.23;;;4.33;;
19897;SDS011;10111;50.814;4.572;2023-08-06T05:52:30;9.57;;;2.93;;
19897;SDS011;10111;50.814;4.572;2023-08-06T05:54:56;7.30;;;3.63;;
19897;SDS011;10111;50.814;4.572;2023-08-06T05:57:22;6.27;;;2.60;;
19897;SDS011;10111;50.814;4.572;2023-08-06T05:59:47;6.20;;;3.10;;
19897;SDS011;10111;50.814;4.572;2023-08-06T06:02:13;6.60;;;3.60;;
19897;SDS011;10111;50.814;4.572;2023-08-06T06:04:40;4.80;;;3.10;;
19897;SDS011;10111;50.814;4.572;2023-08-06T06:07:06;11.33;;;4.20;;
19897;SDS011;10111;50.814;4.572;2023-08-06T06:09:31;7.10;;;3.40;;
19897;SDS011;10111;50.814;4.572;2023-08-06T06:11:57;4.93;;;3.23;;
19897;SDS011;10111;50.814;4.572;2023-08-06T06:14:23;6.57;;;3.13;;
19897;SDS011;10111;50.814;4.572;2023-08-06T06:16:48;6.40;;;3.70;;
19897;SDS011;10111;50.814;4.572;2023-08-06T06:19:14;8.90;;;3.60;;
19897;SDS011;10111;50.814;4.572;2023-08-06T06:21:39;9.97;;;3.27;;
19897;SDS011;10111;50.814;4.572;2023-08-06T06:24:05;7.67;;;3.23;;
19897;SDS011;10111;50.814;4.572;2023-08-06T06:26:31;10.87;;;3.50;;
19897;SDS011;10111;50.814;4.572;2023-08-06T06:28:57;9.23;;;3.67;;
19897;SDS011;10111;50.814;4.572;2023-08-06T06:31:23;11.17;;;3.17;;
19897;SDS011;10111;50.814;4.572;2023-08-06T06:33:49;4.67;;;2.87;;
19897;SDS011;10111;50.814;4.572;2023-08-06T06:36:15;8.77;;;3.47;;
19897;SDS011;10111;50.814;4.572;2023-08-06T06:38:40;7.50;;;3.13;;
19897;SDS011;10111;50.814;4.572;2023-08-06T06:41:06;4.87;;;2.70;;
19897;SDS011;10111;50.814;4.572;2023-08-06T06:43:32;7.23;;;3.50;;
19897;SDS011;10111;50.814;4.572;2023-08-06T06:45:58;12.23;;;3.67;;
19897;SDS011;10111;50.814;4.572;2023-08-06T06:48:28;7.67;;;2.50;;
19897;SDS011;10111;50.814;4.572;2023-08-06T06:50:54;7.03;;;3.13;;
19897;SDS011;10111;50.814;4.572;2023-08-06T06:53:21;10.03;;;4.00;;
19897;SDS011;10111;50.814;4.572;2023-08-06T06:55:53;9.23;;;3.80;;
19897;SDS011;10111;50.814;4.572;2023-08-06T06:58:26;6.20;;;3.13;;
19897;SDS011;10111;50.814;4.572;2023-08-06T07:00:51;7.23;;;4.20;;
19897;SDS011;10111;50.814;4.572;2023-08-06T07:03:17;8.33;;;4.13;;
19897;SDS011;10111;50.814;4.572;2023-08-06T07:05:44;7.47;;;4.17;;
19897;SDS011;10111;50.814;4.572;2023-08-06T07:08:10;12.10;;;4.10;;
19897;SDS011;10111;50.814;4.572;2023-08-06T07:10:36;7.40;;;3.80;;
19897;SDS011;10111;50.814;4.572;2023-08-06T07:13:02;10.70;;;4.43;;
19897;SDS011;10111;50.814;4.572;2023-08-06T07:15:27;8.40;;;3.73;;
19897;SDS011;10111;50.814;4.572;2023-08-06T07:17:53;5.57;;;3.33;;
19897;SDS011;10111;50.814;4.572;2023-08-06T07:20:19;7.13;;;3.40;;
19897;SDS011;10111;50.814;4.572;2023-08-06T07:22:44;5.03;;;2.43;;
19897;SDS011;10111;50.814;4.572;2023-08-06T07:25:10;7.87;;;3.40;;
19897;SDS011;10111;50.814;4.572;2023-08-06T07:27:36;4.03;;;2.57;;
19897;SDS011;10111;50.814;4.572;2023-08-06T07:30:02;5.77;;;2.40;;
19897;SDS011;10111;50.814;4.572;2023-08-06T07:32:28;7.67;;;3.33;;
19897;SDS011;10111;50.814;4.572;2023-08-06T07:34:53;9.27;;;3.13;;
19897;SDS011;10111;50.814;4.572;2023-08-06T07:37:24;8.20;;;2.60;;
19897;SDS011;10111;50.814;4.572;2023-08-06T07:39:50;6.00;;;2.87;;
19897;SDS011;10111;50.814;4.572;2023-08-06T07:42:15;7.90;;;2.57;;
19897;SDS011;10111;50.814;4.572;2023-08-06T07:44:41;6.63;;;2.50;;
19897;SDS011;10111;50.814;4.572;2023-08-06T07:47:07;6.70;;;2.47;;
19897;SDS011;10111;50.814;4.572;2023-08-06T07:49:32;7.20;;;2.60;;
19897;SDS011;10111;50.814;4.572;2023-08-06T07:51:58;6.10;;;2.57;;
19897;SDS011;10111;50.814;4.572;2023-08-06T07:54:24;5.97;;;1.67;;
19897;SDS011;10111;50.814;4.572;2023-08-06T07:56:50;5.60;;;1.90;;
19897;SDS011;10111;50.814;4.572;2023-08-06T07:59:15;7.37;;;1.83;;
19897;SDS011;10111;50.814;4.572;2023-08-06T08:01:41;6.17;;;1.70;;
19897;SDS011;10111;50.814;4.572;2023-08-06T08:04:07;6.93;;;2.30;;
19897;SDS011;10111;50.814;4.572;2023-08-06T08:06:33;8.50;;;1.53;;
19897;SDS011;10111;50.814;4.572;2023-08-06T08:08:58;8.30;;;1.50;;
19897;SDS011;10111;50.814;4.572;2023-08-06T08:11:25;7.97;;;1.90;;
19897;SDS011;10111;50.814;4.572;2023-08-06T08:13:51;6.07;;;1.63;;
19897;SDS011;10111;50.814;4.572;2023-08-06T08:16:16;6.77;;;1.80;;
19897;SDS011;10111;50.814;4.572;2023-08-06T08:18:42;6.70;;;1.63;;
19897;SDS011;10111;50.814;4.572;2023-08-06T08:21:08;3.50;;;1.40;;
19897;SDS011;10111;50.814;4.572;2023-08-06T08:23:33;5.90;;;2.30;;
19897;SDS011;10111;50.814;4.572;2023-08-06T08:25:59;3.57;;;1.57;;
19897;SDS011;10111;50.814;4.572;2023-08-06T08:28:27;7.50;;;1.80;;
19897;SDS011;10111;50.814;4.572;2023-08-06T08:30:52;5.00;;;1.63;;
19897;SDS011;10111;50.814;4.572;2023-08-06T08:33:18;3.77;;;1.83;;
19897;SDS011;10111;50.814;4.572;2023-08-06T08:35:45;5.80;;;1.47;;
19897;SDS011;10111;50.814;4.572;2023-08-06T08:38:10;3.07;;;1.73;;
19897;SDS011;10111;50.814;4.572;2023-08-06T08:40:37;2.67;;;1.70;;
19897;SDS011;10111;50.814;4.572;2023-08-06T08:43:09;6.10;;;1.57;;
19897;SDS011;10111;50.814;4.572;2023-08-06T08:45:36;5.57;;;2.00;;
19897;SDS011;10111;50.814;4.572;2023-08-06T08:48:04;5.07;;;2.37;;
19897;SDS011;10111;50.814;4.572;2023-08-06T08:50:30;7.67;;;1.80;;
19897;SDS011;10111;50.814;4.572;2023-08-06T08:52:56;2.80;;;1.23;;
19897;SDS011;10111;50.814;4.572;2023-08-06T08:55:22;4.77;;;1.60;;
19897;SDS011;10111;50.814;4.572;2023-08-06T08:57:48;4.53;;;1.50;;
19897;SDS011;10111;50.814;4.572;2023-08-06T09:00:14;5.13;;;1.33;;
19897;SDS011;10111;50.814;4.572;2023-08-06T09:02:40;5.77;;;2.00;;
19897;SDS011;10111;50.814;4.572;2023-08-06T09:05:07;3.50;;;2.00;;
19897;SDS011;10111;50.814;4.572;2023-08-06T09:07:35;8.20;;;1.80;;
19897;SDS011;10111;50.814;4.572;2023-08-06T09:10:06;8.50;;;2.03;;
19897;SDS011;10111;50.814;4.572;2023-08-06T09:12:34;5.17;;;1.80;;
19897;SDS011;10111;50.814;4.572;2023-08-06T09:14:59;4.70;;;1.60;;
19897;SDS011;10111;50.814;4.572;2023-08-06T09:17:27;6.70;;;1.80;;
19897;SDS011;10111;50.814;4.572;2023-08-06T09:19:53;9.23;;;1.70;;
19897;SDS011;10111;50.814;4.572;2023-08-06T09:22:19;5.83;;;1.57;;
19897;SDS011;10111;50.814;4.572;2023-08-06T09:24:44;5.47;;;1.60;;
19897;SDS011;10111;50.814;4.572;2023-08-06T09:27:11;4.90;;;2.07;;
19897;SDS011;10111;50.814;4.572;2023-08-06T09:29:43;6.00;;;1.70;;
19897;SDS011;10111;50.814;4.572;2023-08-06T09:32:10;7.00;;;2.13;;
19897;SDS011;10111;50.814;4.572;2023-08-06T09:34:41;3.90;;;1.60;;
19897;SDS011;10111;50.814;4.572;2023-08-06T09:37:08;3.10;;;2.00;;
19897;SDS011;10111;50.814;4.572;2023-08-06T09:39:35;2.83;;;1.60;;
19897;SDS011;10111;50.814;4.572;2023-08-06T09:42:03;8.17;;;2.00;;
19897;SDS011;10111;50.814;4.572;2023-08-06T09:44:30;3.93;;;1.50;;
19897;SDS011;10111;50.814;4.572;2023-08-06T09:46:57;3.53;;;1.73;;
19897;SDS011;10111;50.814;4.572;2023-08-06T09:49:28;4.83;;;1.50;;
19897;SDS011;10111;50.814;4.572;2023-08-06T09:52:10;5.63;;;2.40;;
19897;SDS011;10111;50.814;4.572;2023-08-06T09:54:37;4.70;;;1.50;;
19897;SDS011;10111;50.814;4.572;2023-08-06T09:57:03;2.67;;;1.60;;
19897;SDS011;10111;50.814;4.572;2023-08-06T09:59:30;2.70;;;1.27;;
19897;SDS011;10111;50.814;4.572;2023-08-06T10:01:57;6.43;;;1.97;;
19897;SDS011;10111;50.814;4.572;2023-08-06T10:04:23;7.87;;;1.57;;
19897;SDS011;10111;50.814;4.572;2023-08-06T10:06:48;2.80;;;1.60;;
19897;SDS011;10111;50.814;4.572;2023-08-06T10:09:15;6.27;;;1.77;;
19897;SDS011;10111;50.814;4.572;2023-08-06T10:11:42;5.17;;;1.83;;
19897;SDS011;10111;50.814;4.572;2023-08-06T10:14:13;6.73;;;1.70;;
19897;SDS011;10111;50.814;4.572;2023-08-06T10:16:53;5.77;;;2.10;;
19897;SDS011;10111;50.814;4.572;2023-08-06T10:19:22;3.33;;;1.80;;
19897;SDS011;10111;50.814;4.572;2023-08-06T10:27:32;2.70;;;1.73;;
19897;SDS011;10111;50.814;4.572;2023-08-06T10:32:49;4.47;;;2.10;;
19897;SDS011;10111;50.814;4.572;2023-08-06T10:35:27;6.83;;;2.90;;
19897;SDS011;10111;50.814;4.572;2023-08-06T10:40:49;10.33;;;2.07;;
19897;SDS011;10111;50.814;4.572;2023-08-06T10:43:31;4.90;;;1.80;;
19897;SDS011;10111;50.814;4.572;2023-08-06T10:46:03;5.00;;;1.50;;
19897;SDS011;10111;50.814;4.572;2023-08-06T10:51:07;5.93;;;2.00;;
19897;SDS011;10111;50.814;4.572;2023-08-06T10:53:33;6.83;;;1.57;;
19897;SDS011;10111;50.814;4.572;2023-08-06T10:55:59;4.67;;;2.77;;
19897;SDS011;10111;50.814;4.572;2023-08-06T10:58:25;4.70;;;2.30;;
19897;SDS011;10111;50.814;4.572;2023-08-06T11:00:55;2.80;;;1.83;;
19897;SDS011;10111;50.814;4.572;2023-08-06T11:03:21;5.20;;;2.10;;
19897;SDS011;10111;50.814;4.572;2023-08-06T11:05:48;7.17;;;2.77;;
19897;SDS011;10111;50.814;4.572;2023-08-06T11:08:27;5.07;;;2.50;;
19897;SDS011;10111;50.814;4.572;2023-08-06T11:10:54;5.00;;;2.17;;
19897;SDS011;10111;50.814;4.572;2023-08-06T11:13:20;8.93;;;2.97;;
19897;SDS011;10111;50.814;4.572;2023-08-06T11:15:46;3.10;;;2.20;;
19897;SDS011;10111;50.814;4.572;2023-08-06T11:18:12;3.83;;;2.10;;
19897;SDS011;10111;50.814;4.572;2023-08-06T11:20:38;7.37;;;2.63;;
19897;SDS011;10111;50.814;4.572;2023-08-06T11:23:05;5.80;;;3.00;;
19897;SDS011;10111;50.814;4.572;2023-08-06T11:25:31;6.60;;;3.73;;
19897;SDS011;10111;50.814;4.572;2023-08-06T11:28:02;11.40;;;2.90;;
19897;SDS011;10111;50.814;4.572;2023-08-06T11:30:28;7.23;;;4.53;;
19897;SDS011;10111;50.814;4.572;2023-08-06T11:32:54;5.43;;;2.87;;
19897;SDS011;10111;50.814;4.572;2023-08-06T11:35:19;4.37;;;2.27;;
19897;SDS011;10111;50.814;4.572;2023-08-06T11:37:45;5.93;;;2.40;;
19897;SDS011;10111;50.814;4.572;2023-08-06T11:40:11;5.03;;;2.40;;
19897;SDS011;10111;50.814;4.572;2023-08-06T11:42:39;2.87;;;2.03;;
19897;SDS011;10111;50.814;4.572;2023-08-06T11:45:05;2.23;;;1.80;;
19897;SDS011;10111;50.814;4.572;2023-08-06T11:47:33;6.17;;;2.20;;
19897;SDS011;10111;50.814;4.572;2023-08-06T11:49:59;4.60;;;2.70;;
19897;SDS011;10111;50.814;4.572;2023-08-06T11:52:25;7.40;;;2.90;;
19897;SDS011;10111;50.814;4.572;2023-08-06T11:55:01;8.43;;;2.60;;
19897;SDS011;10111;50.814;4.572;2023-08-06T11:57:37;8.63;;;2.73;;
19897;SDS011;10111;50.814;4.572;2023-08-06T12:00:05;6.23;;;1.93;;
19897;SDS011;10111;50.814;4.572;2023-08-06T12:02:33;6.37;;;2.67;;
19897;SDS011;10111;50.814;4.572;2023-08-06T12:05:01;3.30;;;1.53;;
19897;SDS011;10111;50.814;4.572;2023-08-06T12:07:52;10.77;;;4.60;;
19897;SDS011;10111;50.814;4.572;2023-08-06T12:10:20;4.43;;;1.93;;
19897;SDS011;10111;50.814;4.572;2023-08-06T12:12:46;5.13;;;1.70;;
19897;SDS011;10111;50.814;4.572;2023-08-06T12:15:14;2.33;;;1.37;;
19897;SDS011;10111;50.814;4.572;2023-08-06T12:17:40;2.43;;;1.17;;
19897;SDS011;10111;50.814;4.572;2023-08-06T12:20:06;3.60;;;1.40;;
19897;SDS011;10111;50.814;4.572;2023-08-06T12:22:32;4.30;;;1.23;;
19897;SDS011;10111;50.814;4.572;2023-08-06T12:25:02;3.43;;;1.60;;
19897;SDS011;10111;50.814;4.572;2023-08-06T12:27:36;4.67;;;1.73;;
19897;SDS011;10111;50.814;4.572;2023-08-06T12:30:03;4.33;;;1.50;;
19897;SDS011;10111;50.814;4.572;2023-08-06T12:32:30;7.60;;;2.40;;
19897;SDS011;10111;50.814;4.572;2023-08-06T12:34:55;5.17;;;1.93;;
19897;SDS011;10111;50.814;4.572;2023-08-06T12:37:21;8.23;;;2.43;;
19897;SDS011;10111;50.814;4.572;2023-08-06T12:39:48;6.23;;;1.87;;
19897;SDS011;10111;50.814;4.572;2023-08-06T12:42:13;4.67;;;2.23;;
19897;SDS011;10111;50.814;4.572;2023-08-06T12:44:39;10.03;;;2.50;;
19897;SDS011;10111;50.814;4.572;2023-08-06T12:47:06;2.70;;;1.43;;
19897;SDS011;10111;50.814;4.572;2023-08-06T12:49:32;4.50;;;1.50;;
19897;SDS011;10111;50.814;4.572;2023-08-06T12:51:58;8.97;;;2.60;;
19897;SDS011;10111;50.814;4.572;2023-08-06T12:54:27;3.77;;;1.73;;
19897;SDS011;10111;50.814;4.572;2023-08-06T12:56:53;6.03;;;1.43;;
19897;SDS011;10111;50.814;4.572;2023-08-06T12:59:19;4.70;;;1.60;;
19897;SDS011;10111;50.814;4.572;2023-08-06T13:01:45;6.33;;;1.73;;
19897;SDS011;10111;50.814;4.572;2023-08-06T13:04:11;8.50;;;2.30;;
19897;SDS011;10111;50.814;4.572;2023-08-06T13:06:37;4.77;;;1.50;;
19897;SDS011;10111;50.814;4.572;2023-08-06T13:09:05;2.83;;;1.50;;
19897;SDS011;10111;50.814;4.572;2023-08-06T13:11:33;5.27;;;1.97;;
19897;SDS011;10111;50.814;4.572;2023-08-06T13:14:03;2.70;;;1.40;;
19897;SDS011;10111;50.814;4.572;2023-08-06T13:16:36;3.50;;;2.40;;
19897;SDS011;10111;50.814;4.572;2023-08-06T13:19:03;5.73;;;1.80;;
19897;SDS011;10111;50.814;4.572;2023-08-06T13:21:33;4.67;;;1.37;;
19897;SDS011;10111;50.814;4.572;2023-08-06T13:24:05;10.27;;;1.97;;
19897;SDS011;10111;50.814;4.572;2023-08-06T13:26:31;5.20;;;1.77;;
19897;SDS011;10111;50.814;4.572;2023-08-06T13:28:57;5.03;;;2.07;;
19897;SDS011;10111;50.814;4.572;2023-08-06T13:31:23;4.57;;;1.37;;
19897;SDS011;10111;50.814;4.572;2023-08-06T13:33:49;7.77;;;2.20;;
19897;SDS011;10111;50.814;4.572;2023-08-06T13:36:18;4.67;;;2.17;;
19897;SDS011;10111;50.814;4.572;2023-08-06T13:38:43;6.03;;;2.43;;
19897;SDS011;10111;50.814;4.572;2023-08-06T13:41:09;3.60;;;1.60;;
19897;SDS011;10111;50.814;4.572;2023-08-06T13:43:34;4.40;;;2.10;;
19897;SDS011;10111;50.814;4.572;2023-08-06T13:46:00;4.40;;;1.97;;
19897;SDS011;10111;50.814;4.572;2023-08-06T13:48:26;6.37;;;1.47;;
19897;SDS011;10111;50.814;4.572;2023-08-06T13:50:52;1.53;;;1.10;;
19897;SDS011;10111;50.814;4.572;2023-08-06T13:53:17;3.90;;;1.77;;
19897;SDS011;10111;50.814;4.572;2023-08-06T13:55:43;2.47;;;2.03;;
19897;SDS011;10111;50.814;4.572;2023-08-06T13:58:09;3.93;;;1.43;;
19897;SDS011;10111;50.814;4.572;2023-08-06T14:00:37;1.67;;;1.17;;
19897;SDS011;10111;50.814;4.572;2023-08-06T14:03:03;5.50;;;2.33;;
19897;SDS011;10111;50.814;4.572;2023-08-06T14:05:29;1.90;;;1.57;;
19897;SDS011;10111;50.814;4.572;2023-08-06T14:07:54;2.30;;;1.43;;
19897;SDS011;10111;50.814;4.572;2023-08-06T14:10:20;3.07;;;1.30;;
19897;SDS011;10111;50.814;4.572;2023-08-06T14:12:46;2.50;;;1.70;;
19897;SDS011;10111;50.814;4.572;2023-08-06T14:15:11;2.93;;;1.30;;
19897;SDS011;10111;50.814;4.572;2023-08-06T14:17:37;5.00;;;1.70;;
19897;SDS011;10111;50.814;4.572;2023-08-06T14:20:03;9.33;;;1.70;;
19897;SDS011;10111;50.814;4.572;2023-08-06T14:22:30;3.80;;;1.40;;
19897;SDS011;10111;50.814;4.572;2023-08-06T14:24:56;7.97;;;1.67;;
19897;SDS011;10111;50.814;4.572;2023-08-06T14:27:23;3.70;;;1.50;;
19897;SDS011;10111;50.814;4.572;2023-08-06T14:29:48;3.97;;;1.17;;
19897;SDS011;10111;50.814;4.572;2023-08-06T14:32:14;6.40;;;1.40;;
19897;SDS011;10111;50.814;4.572;2023-08-06T14:34:42;5.87;;;1.63;;
19897;SDS011;10111;50.814;4.572;2023-08-06T14:37:09;6.97;;;1.50;;
19897;SDS011;10111;50.814;4.572;2023-08-06T14:39:35;8.93;;;1.70;;
19897;SDS011;10111;50.814;4.572;2023-08-06T14:42:00;8.57;;;1.57;;
19897;SDS011;10111;50.814;4.572;2023-08-06T14:44:27;6.50;;;1.70;;
19897;SDS011;10111;50.814;4.572;2023-08-06T14:46:52;8.10;;;2.17;;
19897;SDS011;10111;50.814;4.572;2023-08-06T14:49:18;29.87;;;11.83;;
19897;SDS011;10111;50.814;4.572;2023-08-06T14:51:44;4.10;;;1.70;;
19897;SDS011;10111;50.814;4.572;2023-08-06T14:54:09;3.93;;;1.70;;
19897;SDS011;10111;50.814;4.572;2023-08-06T14:56:35;5.97;;;1.73;;
19897;SDS011;10111;50.814;4.572;2023-08-06T14:59:00;6.77;;;1.90;;